sensor_id;sensor_type;location;lat;lon;timestamp;P1;durP1;ratioP1;P2;durP2;ratioP2
16391;SDS011;8305;-33.882;151.134;2023-08-07T00:00:42;3.40;;;0.90;;
16391;SDS011;8305;-33.882;151.134;2023-08-07T00:03:13;2.65;;;0.80;;
16391;SDS011;8305;-33.882;151.134;2023-08-07T00:05:47;4.20;;;0.98;;
16391;SDS011;8305;-33.882;151.134;2023-08-07T00:08:18;2.08;;;0.70;;
16391;SDS011;8305;-33.882;151.134;2023-08-07T00:10:48;3.20;;;0.50;;
16391;SDS011;8305;-33.882;151.134;2023-08-07T00:13:19;2.55;;;0.63;;
16391;SDS011;8305;-33.882;151.134;2023-08-07T00:15:50;3.28;;;0.65;;
16391;SDS011;8305;-33.882;151.134;2023-08-07T00:18:20;1.20;;;0.50;;
16391;SDS011;8305;-33.882;151.134;2023-08-07T00:20:53;1.77;;;0.55;;
16391;SDS011;8305;-33.882;151.134;2023-08-07T00:23:24;3.65;;;1.20;;
16391;SDS011;8305;-33.882;151.134;2023-08-07T00:25:55;2.92;;;0.90;;
16391;SDS011;8305;-33.882;151.134;2023-08-07T00:28:25;4.07;;;0.55;;
16391;SDS011;8305;-33.882;151.134;2023-08-07T00:30:56;0.70;;;0.40;;
16391;SDS011;8305;-33.882;151.134;2023-08-07T00:33:27;0.77;;;0.30;;
16391;SDS011;8305;-33.882;151.134;2023-08-07T00:35:59;1.38;;;0.32;;
16391;SDS011;8305;-33.882;151.134;2023-08-07T00:38:30;1.80;;;0.40;;
16391;SDS011;8305;-33.882;151.134;2023-08-07T00:41:01;1.90;;;0.40;;
16391;SDS011;8305;-33.882;151.134;2023-08-07T00:43:33;1.60;;;0.45;;
16391;SDS011;8305;-33.882;151.134;2023-08-07T00:46:04;2.13;;;0.50;;
16391;SDS011;8305;-33.882;151.134;2023-08-07T00:48:35;1.10;;;0.50;;
16391;SDS011;8305;-33.882;151.134;2023-08-07T00:51:08;2.45;;;0.35;;
16391;SDS011;8305;-33.882;151.134;2023-08-07T00:53:39;1.15;;;0.30;;
16391;SDS011;8305;-33.882;151.134;2023-08-07T00:56:10;2.30;;;0.50;;
16391;SDS011;8305;-33.882;151.134;2023-08-07T00:58:41;1.15;;;0.70;;
16391;SDS011;8305;-33.882;151.134;2023-08-07T01:01:12;1.33;;;0.47;;
16391;SDS011;8305;-33.882;151.134;2023-08-07T01:03:43;4.13;;;0.50;;
16391;SDS011;8305;-33.882;151.134;2023-08-07T01:06:16;0.82;;;0.40;;
16391;SDS011;8305;-33.882;151.134;2023-08-07T01:08:47;2.88;;;0.60;;
16391;SDS011;8305;-33.882;151.134;2023-08-07T01:11:20;2.22;;;0.43;;
16391;SDS011;8305;-33.882;151.134;2023-08-07T01:13:58;4.20;;;0.98;;
16391;SDS011;8305;-33.882;151.134;2023-08-07T01:16:48;3.38;;;0.82;;
16391;SDS011;8305;-33.882;151.134;2023-08-07T01:19:22;2.17;;;0.85;;
16391;SDS011;8305;-33.882;151.134;2023-08-07T01:22:09;2.75;;;0.70;;
16391;SDS011;8305;-33.882;151.134;2023-08-07T01:24:40;1.75;;;0.55;;
16391;SDS011;8305;-33.882;151.134;2023-08-07T01:27:15;2.92;;;0.60;;
16391;SDS011;8305;-33.882;151.134;2023-08-07T01:30:05;2.65;;;0.70;;
16391;SDS011;8305;-33.882;151.134;2023-08-07T01:32:43;1.90;;;1.20;;
16391;SDS011;8305;-33.882;151.134;2023-08-07T01:35:33;19.92;;;14.05;;
16391;SDS011;8305;-33.882;151.134;2023-08-07T01:38:11;14.68;;;8.90;;
16391;SDS011;8305;-33.882;151.134;2023-08-07T01:40:43;2.00;;;0.70;;
16391;SDS011;8305;-33.882;151.134;2023-08-07T01:43:15;2.42;;;1.73;;
16391;SDS011;8305;-33.882;151.134;2023-08-07T01:45:47;2.33;;;1.20;;
16391;SDS011;8305;-33.882;151.134;2023-08-07T01:48:18;3.40;;;0.90;;
16391;SDS011;8305;-33.882;151.134;2023-08-07T01:50:49;1.70;;;0.90;;
16391;SDS011;8305;-33.882;151.134;2023-08-07T01:53:23;4.25;;;1.50;;
16391;SDS011;8305;-33.882;151.134;2023-08-07T01:55:54;27.98;;;20.10;;
16391;SDS011;8305;-33.882;151.134;2023-08-07T01:58:25;2.60;;;1.65;;
16391;SDS011;8305;-33.882;151.134;2023-08-07T02:00:56;4.10;;;2.80;;
16391;SDS011;8305;-33.882;151.134;2023-08-07T02:03:26;2.58;;;1.13;;
16391;SDS011;8305;-33.882;151.134;2023-08-07T02:05:57;4.40;;;2.58;;
16391;SDS011;8305;-33.882;151.134;2023-08-07T02:08:30;5.60;;;3.38;;
16391;SDS011;8305;-33.882;151.134;2023-08-07T02:11:01;5.70;;;2.28;;
16391;SDS011;8305;-33.882;151.134;2023-08-07T02:13:32;1.63;;;1.05;;
16391;SDS011;8305;-33.882;151.134;2023-08-07T02:16:02;2.25;;;0.52;;
16391;SDS011;8305;-33.882;151.134;2023-08-07T02:18:33;2.60;;;0.68;;
16391;SDS011;8305;-33.882;151.134;2023-08-07T02:21:04;1.98;;;1.00;;
16391;SDS011;8305;-33.882;151.134;2023-08-07T02:23:37;2.65;;;0.82;;
16391;SDS011;8305;-33.882;151.134;2023-08-07T02:26:07;1.05;;;0.65;;
16391;SDS011;8305;-33.882;151.134;2023-08-07T02:28:38;2.40;;;1.08;;
16391;SDS011;8305;-33.882;151.134;2023-08-07T02:31:09;0.90;;;0.60;;
16391;SDS011;8305;-33.882;151.134;2023-08-07T02:33:40;1.08;;;0.50;;
16391;SDS011;8305;-33.882;151.134;2023-08-07T02:36:11;1.90;;;0.75;;
16391;SDS011;8305;-33.882;151.134;2023-08-07T02:38:43;1.65;;;0.50;;
16391;SDS011;8305;-33.882;151.134;2023-08-07T02:41:14;1.92;;;0.50;;
16391;SDS011;8305;-33.882;151.134;2023-08-07T02:43:45;3.45;;;0.73;;
16391;SDS011;8305;-33.882;151.134;2023-08-07T02:46:15;1.02;;;0.57;;
16391;SDS011;8305;-33.882;151.134;2023-08-07T02:48:46;1.08;;;0.60;;
16391;SDS011;8305;-33.882;151.134;2023-08-07T02:51:17;1.10;;;0.40;;
16391;SDS011;8305;-33.882;151.134;2023-08-07T02:53:50;1.05;;;0.40;;
16391;SDS011;8305;-33.882;151.134;2023-08-07T02:56:20;2.08;;;0.40;;
16391;SDS011;8305;-33.882;151.134;2023-08-07T02:58:51;1.33;;;0.50;;
16391;SDS011;8305;-33.882;151.134;2023-08-07T03:01:24;5.05;;;1.42;;
16391;SDS011;8305;-33.882;151.134;2023-08-07T03:03:55;0.73;;;0.30;;
16391;SDS011;8305;-33.882;151.134;2023-08-07T03:06:26;1.80;;;0.47;;
16391;SDS011;8305;-33.882;151.134;2023-08-07T03:08:59;3.15;;;0.40;;
16391;SDS011;8305;-33.882;151.134;2023-08-07T03:11:30;1.73;;;0.40;;
16391;SDS011;8305;-33.882;151.134;2023-08-07T03:14:00;0.85;;;0.30;;
16391;SDS011;8305;-33.882;151.134;2023-08-07T03:16:31;2.47;;;0.43;;
16391;SDS011;8305;-33.882;151.134;2023-08-07T03:19:02;0.20;;;0.20;;
16391;SDS011;8305;-33.882;151.134;2023-08-07T03:21:33;1.38;;;0.40;;
16391;SDS011;8305;-33.882;151.134;2023-08-07T03:24:05;0.68;;;0.20;;
16391;SDS011;8305;-33.882;151.134;2023-08-07T03:26:36;0.85;;;0.40;;
16391;SDS011;8305;-33.882;151.134;2023-08-07T03:29:07;0.32;;;0.22;;
16391;SDS011;8305;-33.882;151.134;2023-08-07T03:31:38;1.40;;;0.50;;
16391;SDS011;8305;-33.882;151.134;2023-08-07T03:34:08;1.95;;;0.30;;
16391;SDS011;8305;-33.882;151.134;2023-08-07T03:36:39;1.70;;;0.35;;
16391;SDS011;8305;-33.882;151.134;2023-08-07T03:39:12;3.70;;;0.40;;
16391;SDS011;8305;-33.882;151.134;2023-08-07T03:41:43;0.35;;;0.30;;
16391;SDS011;8305;-33.882;151.134;2023-08-07T03:44:13;1.23;;;0.40;;
16391;SDS011;8305;-33.882;151.134;2023-08-07T03:46:44;1.33;;;0.20;;
16391;SDS011;8305;-33.882;151.134;2023-08-07T03:49:15;1.27;;;0.55;;
16391;SDS011;8305;-33.882;151.134;2023-08-07T03:51:45;2.22;;;0.38;;
16391;SDS011;8305;-33.882;151.134;2023-08-07T03:54:18;0.52;;;0.20;;
16391;SDS011;8305;-33.882;151.134;2023-08-07T03:56:49;1.70;;;0.50;;
16391;SDS011;8305;-33.882;151.134;2023-08-07T03:59:20;0.65;;;0.30;;
16391;SDS011;8305;-33.882;151.134;2023-08-07T04:01:50;0.52;;;0.32;;
16391;SDS011;8305;-33.882;151.134;2023-08-07T04:04:21;0.30;;;0.30;;
16391;SDS011;8305;-33.882;151.134;2023-08-07T04:06:52;0.57;;;0.40;;
16391;SDS011;8305;-33.882;151.134;2023-08-07T04:09:25;2.05;;;0.60;;
16391;SDS011;8305;-33.882;151.134;2023-08-07T04:11:55;0.63;;;0.47;;
16391;SDS011;8305;-33.882;151.134;2023-08-07T04:14:26;1.02;;;0.60;;
16391;SDS011;8305;-33.882;151.134;2023-08-07T04:16:57;1.48;;;0.50;;
16391;SDS011;8305;-33.882;151.134;2023-08-07T04:19:28;2.38;;;0.57;;
16391;SDS011;8305;-33.882;151.134;2023-08-07T04:21:59;1.42;;;0.40;;
16391;SDS011;8305;-33.882;151.134;2023-08-07T04:24:31;2.05;;;0.55;;
16391;SDS011;8305;-33.882;151.134;2023-08-07T04:27:02;2.00;;;0.55;;
16391;SDS011;8305;-33.882;151.134;2023-08-07T04:29:34;3.00;;;0.52;;
16391;SDS011;8305;-33.882;151.134;2023-08-07T04:32:05;2.15;;;0.63;;
16391;SDS011;8305;-33.882;151.134;2023-08-07T04:34:36;0.55;;;0.40;;
16391;SDS011;8305;-33.882;151.134;2023-08-07T04:37:07;2.05;;;0.60;;
16391;SDS011;8305;-33.882;151.134;2023-08-07T04:39:39;1.20;;;0.50;;
16391;SDS011;8305;-33.882;151.134;2023-08-07T04:42:10;2.17;;;0.50;;
16391;SDS011;8305;-33.882;151.134;2023-08-07T04:44:41;1.42;;;0.50;;
16391;SDS011;8305;-33.882;151.134;2023-08-07T04:47:12;0.43;;;0.35;;
16391;SDS011;8305;-33.882;151.134;2023-08-07T04:49:43;2.90;;;0.60;;
16391;SDS011;8305;-33.882;151.134;2023-08-07T04:52:14;1.48;;;0.57;;
16391;SDS011;8305;-33.882;151.134;2023-08-07T04:54:46;1.38;;;0.50;;
16391;SDS011;8305;-33.882;151.134;2023-08-07T04:57:17;2.05;;;0.45;;
16391;SDS011;8305;-33.882;151.134;2023-08-07T04:59:48;1.80;;;0.50;;
16391;SDS011;8305;-33.882;151.134;2023-08-07T05:02:19;1.10;;;0.55;;
16391;SDS011;8305;-33.882;151.134;2023-08-07T05:04:50;2.28;;;0.55;;
16391;SDS011;8305;-33.882;151.134;2023-08-07T05:07:20;1.15;;;0.40;;
16391;SDS011;8305;-33.882;151.134;2023-08-07T05:09:53;1.55;;;0.35;;
16391;SDS011;8305;-33.882;151.134;2023-08-07T05:12:25;0.75;;;0.32;;
16391;SDS011;8305;-33.882;151.134;2023-08-07T05:14:56;0.93;;;0.35;;
16391;SDS011;8305;-33.882;151.134;2023-08-07T05:17:27;1.88;;;0.47;;
16391;SDS011;8305;-33.882;151.134;2023-08-07T05:19:58;1.52;;;0.50;;
16391;SDS011;8305;-33.882;151.134;2023-08-07T05:22:29;0.38;;;0.30;;
16391;SDS011;8305;-33.882;151.134;2023-08-07T05:25:01;0.57;;;0.40;;
16391;SDS011;8305;-33.882;151.134;2023-08-07T05:27:32;0.32;;;0.32;;
16391;SDS011;8305;-33.882;151.134;2023-08-07T05:30:03;1.33;;;0.50;;
16391;SDS011;8305;-33.882;151.134;2023-08-07T05:32:35;1.10;;;0.40;;
16391;SDS011;8305;-33.882;151.134;2023-08-07T05:35:06;1.85;;;0.40;;
16391;SDS011;8305;-33.882;151.134;2023-08-07T05:37:38;0.65;;;0.32;;
16391;SDS011;8305;-33.882;151.134;2023-08-07T05:40:10;1.60;;;0.50;;
16391;SDS011;8305;-33.882;151.134;2023-08-07T05:42:41;0.98;;;0.40;;
16391;SDS011;8305;-33.882;151.134;2023-08-07T05:45:12;0.65;;;0.30;;
16391;SDS011;8305;-33.882;151.134;2023-08-07T05:47:42;0.60;;;0.40;;
16391;SDS011;8305;-33.882;151.134;2023-08-07T05:50:13;1.67;;;0.50;;
16391;SDS011;8305;-33.882;151.134;2023-08-07T05:52:44;0.50;;;0.40;;
16391;SDS011;8305;-33.882;151.134;2023-08-07T05:55:16;0.77;;;0.30;;
16391;SDS011;8305;-33.882;151.134;2023-08-07T05:57:47;0.85;;;0.43;;
16391;SDS011;8305;-33.882;151.134;2023-08-07T06:00:18;1.48;;;0.52;;
16391;SDS011;8305;-33.882;151.134;2023-08-07T06:02:49;0.75;;;0.65;;
16391;SDS011;8305;-33.882;151.134;2023-08-07T06:05:20;2.70;;;0.60;;
16391;SDS011;8305;-33.882;151.134;2023-08-07T06:07:50;2.65;;;0.77;;
16391;SDS011;8305;-33.882;151.134;2023-08-07T06:10:23;2.25;;;0.60;;
16391;SDS011;8305;-33.882;151.134;2023-08-07T06:12:54;2.53;;;0.80;;
16391;SDS011;8305;-33.882;151.134;2023-08-07T06:15:25;4.20;;;0.88;;
16391;SDS011;8305;-33.882;151.134;2023-08-07T06:17:55;0.70;;;0.40;;
16391;SDS011;8305;-33.882;151.134;2023-08-07T06:20:26;1.80;;;0.80;;
16391;SDS011;8305;-33.882;151.134;2023-08-07T06:22:57;1.33;;;0.70;;
16391;SDS011;8305;-33.882;151.134;2023-08-07T06:25:29;2.47;;;0.70;;
16391;SDS011;8305;-33.882;151.134;2023-08-07T06:28:00;1.02;;;0.52;;
16391;SDS011;8305;-33.882;151.134;2023-08-07T06:30:31;1.70;;;0.50;;
16391;SDS011;8305;-33.882;151.134;2023-08-07T06:33:02;1.73;;;0.70;;
16391;SDS011;8305;-33.882;151.134;2023-08-07T06:35:37;0.43;;;0.40;;
16391;SDS011;8305;-33.882;151.134;2023-08-07T06:38:09;0.98;;;0.60;;
16391;SDS011;8305;-33.882;151.134;2023-08-07T06:40:41;0.50;;;0.50;;
16391;SDS011;8305;-33.882;151.134;2023-08-07T06:43:13;2.35;;;0.50;;
16391;SDS011;8305;-33.882;151.134;2023-08-07T06:45:45;0.57;;;0.38;;
16391;SDS011;8305;-33.882;151.134;2023-08-07T06:48:18;1.70;;;0.50;;
16391;SDS011;8305;-33.882;151.134;2023-08-07T06:50:49;0.98;;;0.40;;
16391;SDS011;8305;-33.882;151.134;2023-08-07T06:53:20;0.95;;;0.45;;
16391;SDS011;8305;-33.882;151.134;2023-08-07T06:55:52;0.60;;;0.43;;
16391;SDS011;8305;-33.882;151.134;2023-08-07T06:58:23;1.58;;;0.73;;
16391;SDS011;8305;-33.882;151.134;2023-08-07T07:00:54;0.60;;;0.60;;
16391;SDS011;8305;-33.882;151.134;2023-08-07T07:03:25;0.93;;;0.50;;
16391;SDS011;8305;-33.882;151.134;2023-08-07T07:05:55;2.00;;;0.55;;
16391;SDS011;8305;-33.882;151.134;2023-08-07T07:08:26;0.73;;;0.52;;
16391;SDS011;8305;-33.882;151.134;2023-08-07T07:10:59;0.88;;;0.50;;
16391;SDS011;8305;-33.882;151.134;2023-08-07T07:13:30;1.92;;;0.80;;
16391;SDS011;8305;-33.882;151.134;2023-08-07T07:16:01;1.42;;;0.77;;
16391;SDS011;8305;-33.882;151.134;2023-08-07T07:18:32;1.60;;;0.90;;
16391;SDS011;8305;-33.882;151.134;2023-08-07T07:21:03;1.00;;;0.63;;
16391;SDS011;8305;-33.882;151.134;2023-08-07T07:23:33;0.82;;;0.50;;
16391;SDS011;8305;-33.882;151.134;2023-08-07T07:26:06;3.35;;;0.77;;
16391;SDS011;8305;-33.882;151.134;2023-08-07T07:28:37;2.53;;;0.70;;
16391;SDS011;8305;-33.882;151.134;2023-08-07T07:31:07;1.77;;;1.00;;
16391;SDS011;8305;-33.882;151.134;2023-08-07T07:33:38;1.95;;;1.05;;
16391;SDS011;8305;-33.882;151.134;2023-08-07T07:36:13;1.33;;;0.82;;
16391;SDS011;8305;-33.882;151.134;2023-08-07T07:38:45;1.88;;;1.00;;
16391;SDS011;8305;-33.882;151.134;2023-08-07T07:41:18;2.28;;;0.90;;
16391;SDS011;8305;-33.882;151.134;2023-08-07T07:43:49;1.60;;;1.20;;
16391;SDS011;8305;-33.882;151.134;2023-08-07T07:46:19;2.40;;;1.42;;
16391;SDS011;8305;-33.882;151.134;2023-08-07T07:48:50;3.17;;;1.25;;
16391;SDS011;8305;-33.882;151.134;2023-08-07T07:51:22;3.00;;;1.25;;
16391;SDS011;8305;-33.882;151.134;2023-08-07T07:53:53;4.28;;;1.08;;
16391;SDS011;8305;-33.882;151.134;2023-08-07T07:56:25;1.15;;;0.90;;
16391;SDS011;8305;-33.882;151.134;2023-08-07T07:58:56;3.08;;;0.80;;
16391;SDS011;8305;-33.882;151.134;2023-08-07T08:01:27;3.50;;;1.30;;
16391;SDS011;8305;-33.882;151.134;2023-08-07T08:03:57;1.67;;;1.00;;
16391;SDS011;8305;-33.882;151.134;2023-08-07T08:06:28;3.53;;;1.20;;
16391;SDS011;8305;-33.882;151.134;2023-08-07T08:08:59;1.73;;;1.20;;
16391;SDS011;8305;-33.882;151.134;2023-08-07T08:11:32;1.85;;;1.20;;
16391;SDS011;8305;-33.882;151.134;2023-08-07T08:14:03;3.05;;;1.30;;
16391;SDS011;8305;-33.882;151.134;2023-08-07T08:16:34;3.88;;;1.20;;
16391;SDS011;8305;-33.882;151.134;2023-08-07T08:19:04;2.13;;;1.05;;
16391;SDS011;8305;-33.882;151.134;2023-08-07T08:21:36;1.75;;;0.90;;
16391;SDS011;8305;-33.882;151.134;2023-08-07T08:24:06;1.58;;;0.90;;
16391;SDS011;8305;-33.882;151.134;2023-08-07T08:26:42;3.15;;;1.00;;
16391;SDS011;8305;-33.882;151.134;2023-08-07T08:29:14;3.53;;;1.35;;
16391;SDS011;8305;-33.882;151.134;2023-08-07T08:31:45;4.40;;;1.52;;
16391;SDS011;8305;-33.882;151.134;2023-08-07T08:34:17;2.20;;;1.60;;
16391;SDS011;8305;-33.882;151.134;2023-08-07T08:36:48;3.75;;;2.00;;
16391;SDS011;8305;-33.882;151.134;2023-08-07T08:39:18;4.00;;;2.03;;
16391;SDS011;8305;-33.882;151.134;2023-08-07T08:41:51;4.75;;;2.20;;
16391;SDS011;8305;-33.882;151.134;2023-08-07T08:44:22;3.80;;;2.20;;
16391;SDS011;8305;-33.882;151.134;2023-08-07T08:46:55;4.05;;;1.88;;
16391;SDS011;8305;-33.882;151.134;2023-08-07T08:49:30;4.05;;;2.08;;
16391;SDS011;8305;-33.882;151.134;2023-08-07T08:52:02;6.13;;;2.70;;
16391;SDS011;8305;-33.882;151.134;2023-08-07T08:54:34;5.05;;;2.58;;
16391;SDS011;8305;-33.882;151.134;2023-08-07T08:57:07;6.63;;;2.72;;
16391;SDS011;8305;-33.882;151.134;2023-08-07T08:59:38;5.85;;;2.60;;
16391;SDS011;8305;-33.882;151.134;2023-08-07T09:02:10;6.93;;;2.53;;
16391;SDS011;8305;-33.882;151.134;2023-08-07T09:04:41;3.55;;;1.83;;
16391;SDS011;8305;-33.882;151.134;2023-08-07T09:07:13;2.83;;;1.75;;
16391;SDS011;8305;-33.882;151.134;2023-08-07T09:09:45;3.25;;;1.65;;
16391;SDS011;8305;-33.882;151.134;2023-08-07T09:12:19;4.85;;;1.73;;
16391;SDS011;8305;-33.882;151.134;2023-08-07T09:14:52;3.83;;;1.70;;
16391;SDS011;8305;-33.882;151.134;2023-08-07T09:17:27;2.80;;;1.63;;
16391;SDS011;8305;-33.882;151.134;2023-08-07T09:20:00;3.90;;;1.70;;
16391;SDS011;8305;-33.882;151.134;2023-08-07T09:22:33;4.07;;;1.80;;
16391;SDS011;8305;-33.882;151.134;2023-08-07T09:25:03;3.40;;;1.60;;
16391;SDS011;8305;-33.882;151.134;2023-08-07T09:27:38;3.55;;;1.90;;
16391;SDS011;8305;-33.882;151.134;2023-08-07T09:30:09;4.78;;;1.52;;
16391;SDS011;8305;-33.882;151.134;2023-08-07T09:32:41;3.28;;;2.03;;
16391;SDS011;8305;-33.882;151.134;2023-08-07T09:35:12;2.28;;;1.70;;
16391;SDS011;8305;-33.882;151.134;2023-08-07T09:37:43;2.60;;;1.90;;
16391;SDS011;8305;-33.882;151.134;2023-08-07T09:40:14;2.45;;;1.58;;
16391;SDS011;8305;-33.882;151.134;2023-08-07T09:42:47;3.85;;;2.00;;
16391;SDS011;8305;-33.882;151.134;2023-08-07T09:45:21;2.20;;;1.80;;
16391;SDS011;8305;-33.882;151.134;2023-08-07T09:47:58;4.85;;;1.80;;
16391;SDS011;8305;-33.882;151.134;2023-08-07T09:50:32;3.58;;;2.40;;
16391;SDS011;8305;-33.882;151.134;2023-08-07T09:53:03;5.40;;;2.50;;
16391;SDS011;8305;-33.882;151.134;2023-08-07T09:55:34;4.80;;;2.90;;
16391;SDS011;8305;-33.882;151.134;2023-08-07T09:58:08;5.32;;;3.40;;
16391;SDS011;8305;-33.882;151.134;2023-08-07T10:00:40;6.88;;;4.75;;
16391;SDS011;8305;-33.882;151.134;2023-08-07T10:03:11;6.72;;;4.30;;
16391;SDS011;8305;-33.882;151.134;2023-08-07T10:05:43;5.82;;;4.57;;
16391;SDS011;8305;-33.882;151.134;2023-08-07T10:08:14;9.07;;;5.28;;
16391;SDS011;8305;-33.882;151.134;2023-08-07T10:10:46;8.25;;;5.90;;
16391;SDS011;8305;-33.882;151.134;2023-08-07T10:13:19;7.90;;;5.82;;
16391;SDS011;8305;-33.882;151.134;2023-08-07T10:15:51;9.43;;;6.47;;
16391;SDS011;8305;-33.882;151.134;2023-08-07T10:18:22;8.20;;;6.05;;
16391;SDS011;8305;-33.882;151.134;2023-08-07T10:20:53;8.95;;;6.60;;
16391;SDS011;8305;-33.882;151.134;2023-08-07T10:23:25;10.57;;;6.50;;
16391;SDS011;8305;-33.882;151.134;2023-08-07T10:25:56;9.68;;;6.70;;
16391;SDS011;8305;-33.882;151.134;2023-08-07T10:28:30;9.70;;;7.28;;
16391;SDS011;8305;-33.882;151.134;2023-08-07T10:31:04;7.72;;;6.60;;
16391;SDS011;8305;-33.882;151.134;2023-08-07T10:33:35;10.95;;;7.22;;
16391;SDS011;8305;-33.882;151.134;2023-08-07T10:36:09;10.30;;;6.68;;
16391;SDS011;8305;-33.882;151.134;2023-08-07T10:38:40;9.23;;;6.35;;
16391;SDS011;8305;-33.882;151.134;2023-08-07T10:41:12;10.85;;;6.63;;
16391;SDS011;8305;-33.882;151.134;2023-08-07T10:43:45;8.85;;;5.80;;
16391;SDS011;8305;-33.882;151.134;2023-08-07T10:46:17;9.35;;;5.97;;
16391;SDS011;8305;-33.882;151.134;2023-08-07T10:48:53;9.50;;;6.00;;
16391;SDS011;8305;-33.882;151.134;2023-08-07T10:51:28;8.38;;;5.80;;
16391;SDS011;8305;-33.882;151.134;2023-08-07T10:53:59;6.90;;;5.20;;
16391;SDS011;8305;-33.882;151.134;2023-08-07T10:56:32;7.65;;;5.45;;
16391;SDS011;8305;-33.882;151.134;2023-08-07T10:59:09;7.45;;;5.18;;
16391;SDS011;8305;-33.882;151.134;2023-08-07T11:01:41;8.80;;;5.03;;
16391;SDS011;8305;-33.882;151.134;2023-08-07T11:04:12;10.13;;;4.60;;
16391;SDS011;8305;-33.882;151.134;2023-08-07T11:06:43;8.27;;;4.75;;
16391;SDS011;8305;-33.882;151.134;2023-08-07T11:09:17;8.52;;;4.47;;
16391;SDS011;8305;-33.882;151.134;2023-08-07T11:11:48;8.48;;;4.90;;
16391;SDS011;8305;-33.882;151.134;2023-08-07T11:14:21;8.90;;;5.03;;
16391;SDS011;8305;-33.882;151.134;2023-08-07T11:16:51;7.43;;;4.70;;
16391;SDS011;8305;-33.882;151.134;2023-08-07T11:19:22;8.10;;;4.78;;
16391;SDS011;8305;-33.882;151.134;2023-08-07T11:21:53;9.57;;;5.03;;
16391;SDS011;8305;-33.882;151.134;2023-08-07T11:24:26;11.13;;;5.13;;
16391;SDS011;8305;-33.882;151.134;2023-08-07T11:26:57;10.02;;;5.20;;
16391;SDS011;8305;-33.882;151.134;2023-08-07T11:29:29;9.05;;;4.90;;
16391;SDS011;8305;-33.882;151.134;2023-08-07T11:32:02;7.63;;;4.38;;
16391;SDS011;8305;-33.882;151.134;2023-08-07T11:34:34;7.45;;;4.38;;
16391;SDS011;8305;-33.882;151.134;2023-08-07T11:37:04;8.43;;;4.88;;
16391;SDS011;8305;-33.882;151.134;2023-08-07T11:39:41;7.22;;;4.10;;
16391;SDS011;8305;-33.882;151.134;2023-08-07T11:42:13;8.48;;;4.10;;
16391;SDS011;8305;-33.882;151.134;2023-08-07T11:44:46;5.80;;;3.90;;
16391;SDS011;8305;-33.882;151.134;2023-08-07T11:47:16;5.45;;;4.05;;
16391;SDS011;8305;-33.882;151.134;2023-08-07T11:49:47;6.13;;;4.22;;
16391;SDS011;8305;-33.882;151.134;2023-08-07T11:52:20;7.55;;;4.28;;
16391;SDS011;8305;-33.882;151.134;2023-08-07T11:54:52;6.18;;;4.40;;
16391;SDS011;8305;-33.882;151.134;2023-08-07T11:57:24;9.80;;;5.00;;
16391;SDS011;8305;-33.882;151.134;2023-08-07T11:59:58;7.57;;;4.60;;
16391;SDS011;8305;-33.882;151.134;2023-08-07T12:02:29;8.13;;;4.82;;
16391;SDS011;8305;-33.882;151.134;2023-08-07T12:05:08;6.22;;;4.18;;
16391;SDS011;8305;-33.882;151.134;2023-08-07T12:07:39;6.05;;;4.15;;
16391;SDS011;8305;-33.882;151.134;2023-08-07T12:10:10;6.32;;;4.20;;
16391;SDS011;8305;-33.882;151.134;2023-08-07T12:12:42;6.43;;;4.30;;
16391;SDS011;8305;-33.882;151.134;2023-08-07T12:15:16;7.50;;;4.22;;
16391;SDS011;8305;-33.882;151.134;2023-08-07T12:17:46;7.40;;;4.22;;
16391;SDS011;8305;-33.882;151.134;2023-08-07T12:20:17;8.55;;;4.15;;
16391;SDS011;8305;-33.882;151.134;2023-08-07T12:22:48;7.25;;;4.43;;
16391;SDS011;8305;-33.882;151.134;2023-08-07T12:25:19;5.93;;;4.05;;
16391;SDS011;8305;-33.882;151.134;2023-08-07T12:27:49;6.15;;;3.97;;
16391;SDS011;8305;-33.882;151.134;2023-08-07T12:30:22;5.78;;;3.95;;
16391;SDS011;8305;-33.882;151.134;2023-08-07T12:32:53;7.32;;;4.25;;
16391;SDS011;8305;-33.882;151.134;2023-08-07T12:35:24;7.30;;;4.03;;
16391;SDS011;8305;-33.882;151.134;2023-08-07T12:37:54;6.93;;;3.95;;
16391;SDS011;8305;-33.882;151.134;2023-08-07T12:40:25;5.75;;;3.38;;
16391;SDS011;8305;-33.882;151.134;2023-08-07T12:42:56;6.20;;;3.25;;
16391;SDS011;8305;-33.882;151.134;2023-08-07T12:45:29;5.78;;;3.20;;
16391;SDS011;8305;-33.882;151.134;2023-08-07T12:48:00;5.68;;;3.10;;
16391;SDS011;8305;-33.882;151.134;2023-08-07T12:50:31;5.35;;;2.75;;
16391;SDS011;8305;-33.882;151.134;2023-08-07T12:53:02;6.57;;;3.30;;
16391;SDS011;8305;-33.882;151.134;2023-08-07T12:55:33;7.78;;;3.50;;
16391;SDS011;8305;-33.882;151.134;2023-08-07T12:58:03;5.78;;;3.25;;
16391;SDS011;8305;-33.882;151.134;2023-08-07T13:00:36;6.15;;;3.42;;
16391;SDS011;8305;-33.882;151.134;2023-08-07T13:03:07;5.18;;;3.03;;
16391;SDS011;8305;-33.882;151.134;2023-08-07T13:05:37;4.65;;;2.80;;
16391;SDS011;8305;-33.882;151.134;2023-08-07T13:08:08;4.47;;;3.20;;
16391;SDS011;8305;-33.882;151.134;2023-08-07T13:10:39;5.03;;;3.08;;
16391;SDS011;8305;-33.882;151.134;2023-08-07T13:13:10;5.07;;;2.90;;
16391;SDS011;8305;-33.882;151.134;2023-08-07T13:15:42;4.45;;;2.95;;
16391;SDS011;8305;-33.882;151.134;2023-08-07T13:18:13;4.65;;;3.10;;
16391;SDS011;8305;-33.882;151.134;2023-08-07T13:20:44;6.70;;;3.05;;
16391;SDS011;8305;-33.882;151.134;2023-08-07T13:23:14;5.18;;;3.00;;
16391;SDS011;8305;-33.882;151.134;2023-08-07T13:25:45;5.93;;;3.28;;
16391;SDS011;8305;-33.882;151.134;2023-08-07T13:28:16;5.03;;;3.00;;
16391;SDS011;8305;-33.882;151.134;2023-08-07T13:30:48;4.25;;;2.95;;
16391;SDS011;8305;-33.882;151.134;2023-08-07T13:33:20;4.93;;;2.75;;
16391;SDS011;8305;-33.882;151.134;2023-08-07T13:35:50;4.25;;;2.80;;
16391;SDS011;8305;-33.882;151.134;2023-08-07T13:38:21;3.75;;;2.92;;
16391;SDS011;8305;-33.882;151.134;2023-08-07T13:40:52;4.88;;;2.63;;
16391;SDS011;8305;-33.882;151.134;2023-08-07T13:43:23;3.45;;;2.30;;
16391;SDS011;8305;-33.882;151.134;2023-08-07T13:45:55;3.60;;;2.53;;
16391;SDS011;8305;-33.882;151.134;2023-08-07T13:48:26;4.78;;;2.75;;
16391;SDS011;8305;-33.882;151.134;2023-08-07T13:50:56;3.70;;;2.55;;
16391;SDS011;8305;-33.882;151.134;2023-08-07T13:53:30;4.30;;;2.88;;
16391;SDS011;8305;-33.882;151.134;2023-08-07T13:56:01;3.88;;;2.40;;
16391;SDS011;8305;-33.882;151.134;2023-08-07T13:58:32;6.75;;;2.70;;
16391;SDS011;8305;-33.882;151.134;2023-08-07T14:01:05;3.80;;;2.30;;
16391;SDS011;8305;-33.882;151.134;2023-08-07T14:03:36;3.65;;;2.50;;
16391;SDS011;8305;-33.882;151.134;2023-08-07T14:06:06;4.65;;;2.53;;
16391;SDS011;8305;-33.882;151.134;2023-08-07T14:08:37;4.75;;;2.63;;
16391;SDS011;8305;-33.882;151.134;2023-08-07T14:11:08;3.58;;;2.38;;
16391;SDS011;8305;-33.882;151.134;2023-08-07T14:13:40;5.30;;;2.92;;
16391;SDS011;8305;-33.882;151.134;2023-08-07T14:16:14;4.22;;;2.50;;
16391;SDS011;8305;-33.882;151.134;2023-08-07T14:18:45;4.60;;;2.58;;
16391;SDS011;8305;-33.882;151.134;2023-08-07T14:21:15;3.88;;;2.60;;
16391;SDS011;8305;-33.882;151.134;2023-08-07T14:23:46;5.35;;;3.00;;
16391;SDS011;8305;-33.882;151.134;2023-08-07T14:26:17;5.32;;;2.88;;
16391;SDS011;8305;-33.882;151.134;2023-08-07T14:28:48;5.18;;;2.85;;
16391;SDS011;8305;-33.882;151.134;2023-08-07T14:31:20;3.75;;;2.60;;
16391;SDS011;8305;-33.882;151.134;2023-08-07T14:33:51;3.65;;;2.80;;
16391;SDS011;8305;-33.882;151.134;2023-08-07T14:36:22;5.13;;;2.80;;
16391;SDS011;8305;-33.882;151.134;2023-08-07T14:38:53;4.03;;;2.90;;
16391;SDS011;8305;-33.882;151.134;2023-08-07T14:41:24;6.00;;;2.88;;
16391;SDS011;8305;-33.882;151.134;2023-08-07T14:43:54;3.40;;;2.83;;
16391;SDS011;8305;-33.882;151.134;2023-08-07T14:46:27;4.05;;;2.60;;